sensor_id;sensor_type;location;lat;lon;timestamp;P1;durP1;ratioP1;P2;durP2;ratioP2
64210;SDS011;50528;48.514;14.394;2023-07-29T00:00:31;5.60;;;4.30;;
64210;SDS011;50528;48.514;14.394;2023-07-29T00:01:24;7.00;;;4.20;;
64210;SDS011;50528;48.514;14.394;2023-07-29T00:01:58;5.90;;;4.40;;
64210;SDS011;50528;48.514;14.394;2023-07-29T00:02:32;6.70;;;4.50;;
64210;SDS011;50528;48.514;14.394;2023-07-29T00:03:05;5.20;;;4.30;;
64210;SDS011;50528;48.514;14.394;2023-07-29T00:03:40;6.10;;;4.40;;
64210;SDS011;50528;48.514;14.394;2023-07-29T00:04:13;5.70;;;4.30;;
64210;SDS011;50528;48.514;14.394;2023-07-29T00:04:47;7.00;;;4.50;;
64210;SDS011;50528;48.514;14.394;2023-07-29T00:05:20;5.90;;;4.10;;
64210;SDS011;50528;48.514;14.394;2023-07-29T00:05:53;6.30;;;4.20;;
64210;SDS011;50528;48.514;14.394;2023-07-29T00:06:27;5.90;;;4.20;;
64210;SDS011;50528;48.514;14.394;2023-07-29T00:07:00;5.50;;;4.00;;
64210;SDS011;50528;48.514;14.394;2023-07-29T00:07:34;6.10;;;4.20;;
64210;SDS011;50528;48.514;14.394;2023-07-29T00:08:07;6.30;;;4.30;;
64210;SDS011;50528;48.514;14.394;2023-07-29T00:08:40;5.50;;;4.20;;
64210;SDS011;50528;48.514;14.394;2023-07-29T00:09:14;6.10;;;4.00;;
64210;SDS011;50528;48.514;14.394;2023-07-29T00:09:47;4.80;;;4.20;;
64210;SDS011;50528;48.514;14.394;2023-07-29T00:10:20;7.00;;;4.50;;
64210;SDS011;50528;48.514;14.394;2023-07-29T00:10:54;5.50;;;4.40;;
64210;SDS011;50528;48.514;14.394;2023-07-29T00:11:27;5.80;;;4.50;;
64210;SDS011;50528;48.514;14.394;2023-07-29T00:12:00;5.90;;;4.50;;
64210;SDS011;50528;48.514;14.394;2023-07-29T00:12:33;5.30;;;4.10;;
64210;SDS011;50528;48.514;14.394;2023-07-29T00:13:07;5.60;;;4.40;;
64210;SDS011;50528;48.514;14.394;2023-07-29T00:13:40;6.20;;;3.90;;
64210;SDS011;50528;48.514;14.394;2023-07-29T00:14:14;5.00;;;4.10;;
64210;SDS011;50528;48.514;14.394;2023-07-29T00:14:47;6.30;;;4.00;;
64210;SDS011;50528;48.514;14.394;2023-07-29T00:15:20;5.30;;;4.40;;
64210;SDS011;50528;48.514;14.394;2023-07-29T00:15:54;6.90;;;4.50;;
64210;SDS011;50528;48.514;14.394;2023-07-29T00:16:28;6.70;;;4.10;;
64210;SDS011;50528;48.514;14.394;2023-07-29T00:17:02;4.70;;;3.90;;
64210;SDS011;50528;48.514;14.394;2023-07-29T00:17:36;5.10;;;4.00;;
64210;SDS011;50528;48.514;14.394;2023-07-29T00:18:13;7.10;;;4.10;;
64210;SDS011;50528;48.514;14.394;2023-07-29T00:18:51;5.20;;;3.80;;
64210;SDS011;50528;48.514;14.394;2023-07-29T00:19:28;5.20;;;4.20;;
64210;SDS011;50528;48.514;14.394;2023-07-29T00:20:02;5.10;;;4.10;;
64210;SDS011;50528;48.514;14.394;2023-07-29T00:20:39;5.10;;;4.00;;
64210;SDS011;50528;48.514;14.394;2023-07-29T00:21:13;5.40;;;3.80;;
64210;SDS011;50528;48.514;14.394;2023-07-29T00:21:46;7.10;;;4.10;;
64210;SDS011;50528;48.514;14.394;2023-07-29T00:22:20;5.90;;;4.30;;
64210;SDS011;50528;48.514;14.394;2023-07-29T00:22:54;5.20;;;4.10;;
64210;SDS011;50528;48.514;14.394;2023-07-29T00:23:27;6.70;;;3.70;;
64210;SDS011;50528;48.514;14.394;2023-07-29T00:24:02;5.40;;;3.80;;
64210;SDS011;50528;48.514;14.394;2023-07-29T00:24:35;5.40;;;4.00;;
64210;SDS011;50528;48.514;14.394;2023-07-29T00:25:08;5.90;;;3.90;;
64210;SDS011;50528;48.514;14.394;2023-07-29T00:25:42;4.70;;;3.90;;
64210;SDS011;50528;48.514;14.394;2023-07-29T00:26:16;5.10;;;3.70;;
64210;SDS011;50528;48.514;14.394;2023-07-29T00:26:49;4.80;;;3.80;;
64210;SDS011;50528;48.514;14.394;2023-07-29T00:27:22;5.00;;;3.90;;
64210;SDS011;50528;48.514;14.394;2023-07-29T00:27:56;4.90;;;4.00;;
64210;SDS011;50528;48.514;14.394;2023-07-29T00:28:31;5.90;;;4.10;;
64210;SDS011;50528;48.514;14.394;2023-07-29T00:29:05;5.20;;;4.00;;
64210;SDS011;50528;48.514;14.394;2023-07-29T00:29:38;5.40;;;3.90;;
64210;SDS011;50528;48.514;14.394;2023-07-29T00:30:12;4.80;;;3.60;;
64210;SDS011;50528;48.514;14.394;2023-07-29T00:30:45;4.30;;;3.70;;
64210;SDS011;50528;48.514;14.394;2023-07-29T00:31:19;4.20;;;3.60;;
64210;SDS011;50528;48.514;14.394;2023-07-29T00:31:52;5.20;;;3.60;;
64210;SDS011;50528;48.514;14.394;2023-07-29T00:32:29;5.30;;;3.60;;
64210;SDS011;50528;48.514;14.394;2023-07-29T00:33:04;6.80;;;3.60;;
64210;SDS011;50528;48.514;14.394;2023-07-29T00:33:37;5.40;;;3.60;;
64210;SDS011;50528;48.514;14.394;2023-07-29T00:34:10;4.30;;;3.40;;
64210;SDS011;50528;48.514;14.394;2023-07-29T00:34:44;4.40;;;3.40;;
64210;SDS011;50528;48.514;14.394;2023-07-29T00:35:17;4.90;;;3.40;;
64210;SDS011;50528;48.514;14.394;2023-07-29T00:35:54;4.70;;;3.40;;
64210;SDS011;50528;48.514;14.394;2023-07-29T00:36:27;5.20;;;3.50;;
64210;SDS011;50528;48.514;14.394;2023-07-29T00:37:00;4.50;;;3.50;;
64210;SDS011;50528;48.514;14.394;2023-07-29T00:37:34;4.50;;;3.50;;
64210;SDS011;50528;48.514;14.394;2023-07-29T00:38:07;6.30;;;3.40;;
64210;SDS011;50528;48.514;14.394;2023-07-29T00:38:40;4.20;;;3.30;;
64210;SDS011;50528;48.514;14.394;2023-07-29T00:39:14;5.40;;;3.40;;
64210;SDS011;50528;48.514;14.394;2023-07-29T00:39:47;4.40;;;3.30;;
64210;SDS011;50528;48.514;14.394;2023-07-29T00:40:21;5.80;;;3.40;;
64210;SDS011;50528;48.514;14.394;2023-07-29T00:40:57;4.30;;;3.40;;
64210;SDS011;50528;48.514;14.394;2023-07-29T00:41:31;5.00;;;3.30;;
64210;SDS011;50528;48.514;14.394;2023-07-29T00:42:05;5.40;;;3.40;;
64210;SDS011;50528;48.514;14.394;2023-07-29T00:42:39;5.60;;;3.40;;
64210;SDS011;50528;48.514;14.394;2023-07-29T00:43:14;4.40;;;3.20;;
64210;SDS011;50528;48.514;14.394;2023-07-29T00:43:47;3.90;;;3.10;;
64210;SDS011;50528;48.514;14.394;2023-07-29T00:44:21;5.00;;;3.30;;
64210;SDS011;50528;48.514;14.394;2023-07-29T00:44:54;6.40;;;3.20;;
64210;SDS011;50528;48.514;14.394;2023-07-29T00:45:29;4.90;;;3.10;;
64210;SDS011;50528;48.514;14.394;2023-07-29T00:46:03;4.60;;;3.40;;
64210;SDS011;50528;48.514;14.394;2023-07-29T00:46:37;4.30;;;3.10;;
64210;SDS011;50528;48.514;14.394;2023-07-29T00:47:14;4.40;;;3.20;;
64210;SDS011;50528;48.514;14.394;2023-07-29T00:47:48;5.90;;;3.00;;
64210;SDS011;50528;48.514;14.394;2023-07-29T00:48:22;4.30;;;3.30;;
64210;SDS011;50528;48.514;14.394;2023-07-29T00:48:57;4.60;;;3.10;;
64210;SDS011;50528;48.514;14.394;2023-07-29T00:49:30;4.00;;;3.10;;
64210;SDS011;50528;48.514;14.394;2023-07-29T00:50:04;4.10;;;3.00;;
64210;SDS011;50528;48.514;14.394;2023-07-29T00:50:39;4.00;;;3.20;;
64210;SDS011;50528;48.514;14.394;2023-07-29T00:51:13;6.60;;;3.20;;
64210;SDS011;50528;48.514;14.394;2023-07-29T00:51:47;4.30;;;3.10;;
64210;SDS011;50528;48.514;14.394;2023-07-29T00:52:20;4.20;;;3.00;;
64210;SDS011;50528;48.514;14.394;2023-07-29T00:52:54;5.50;;;3.30;;
64210;SDS011;50528;48.514;14.394;2023-07-29T00:53:28;4.80;;;3.20;;
64210;SDS011;50528;48.514;14.394;2023-07-29T00:54:02;4.70;;;3.00;;
64210;SDS011;50528;48.514;14.394;2023-07-29T00:54:35;4.70;;;3.10;;
64210;SDS011;50528;48.514;14.394;2023-07-29T00:55:09;4.10;;;2.90;;
64210;SDS011;50528;48.514;14.394;2023-07-29T00:55:42;5.20;;;3.00;;
64210;SDS011;50528;48.514;14.394;2023-07-29T00:56:16;4.90;;;3.40;;
64210;SDS011;50528;48.514;14.394;2023-07-29T00:56:50;3.90;;;3.00;;
64210;SDS011;50528;48.514;14.394;2023-07-29T00:57:24;4.80;;;3.20;;
64210;SDS011;50528;48.514;14.394;2023-07-29T00:57:59;4.20;;;2.90;;
64210;SDS011;50528;48.514;14.394;2023-07-29T00:58:33;4.40;;;2.70;;
64210;SDS011;50528;48.514;14.394;2023-07-29T00:59:07;4.40;;;3.10;;
64210;SDS011;50528;48.514;14.394;2023-07-29T00:59:40;4.70;;;3.30;;
64210;SDS011;50528;48.514;14.394;2023-07-29T01:00:15;5.20;;;2.90;;
64210;SDS011;50528;48.514;14.394;2023-07-29T01:00:49;4.00;;;2.80;;
64210;SDS011;50528;48.514;14.394;2023-07-29T01:01:23;4.20;;;2.90;;
64210;SDS011;50528;48.514;14.394;2023-07-29T01:01:56;4.60;;;2.90;;
64210;SDS011;50528;48.514;14.394;2023-07-29T01:02:30;4.40;;;2.90;;
64210;SDS011;50528;48.514;14.394;2023-07-29T01:03:05;5.10;;;3.10;;
64210;SDS011;50528;48.514;14.394;2023-07-29T01:03:40;5.10;;;3.20;;
64210;SDS011;50528;48.514;14.394;2023-07-29T01:04:14;5.10;;;3.10;;
64210;SDS011;50528;48.514;14.394;2023-07-29T01:04:53;5.00;;;3.00;;
64210;SDS011;50528;48.514;14.394;2023-07-29T01:08:05;4.30;;;2.90;;
64210;SDS011;50528;48.514;14.394;2023-07-29T01:09:01;3.60;;;2.70;;
64210;SDS011;50528;48.514;14.394;2023-07-29T01:10:58;5.10;;;3.00;;
64210;SDS011;50528;48.514;14.394;2023-07-29T01:12:18;4.00;;;2.50;;
64210;SDS011;50528;48.514;14.394;2023-07-29T01:13:37;4.50;;;2.80;;
64210;SDS011;50528;48.514;14.394;2023-07-29T01:15:59;5.40;;;2.90;;
64210;SDS011;50528;48.514;14.394;2023-07-29T01:16:47;5.00;;;2.60;;
64210;SDS011;50528;48.514;14.394;2023-07-29T01:17:31;5.00;;;2.60;;
64210;SDS011;50528;48.514;14.394;2023-07-29T01:18:11;4.30;;;2.50;;
64210;SDS011;50528;48.514;14.394;2023-07-29T01:18:53;4.60;;;2.80;;
64210;SDS011;50528;48.514;14.394;2023-07-29T01:20:20;4.10;;;2.90;;
64210;SDS011;50528;48.514;14.394;2023-07-29T01:20:58;4.00;;;2.70;;
64210;SDS011;50528;48.514;14.394;2023-07-29T01:21:35;3.80;;;2.70;;
64210;SDS011;50528;48.514;14.394;2023-07-29T01:22:11;4.00;;;2.90;;
64210;SDS011;50528;48.514;14.394;2023-07-29T01:22:45;4.50;;;2.60;;
64210;SDS011;50528;48.514;14.394;2023-07-29T01:23:23;3.60;;;2.90;;
64210;SDS011;50528;48.514;14.394;2023-07-29T01:23:58;4.30;;;2.50;;
64210;SDS011;50528;48.514;14.394;2023-07-29T01:24:32;3.80;;;2.50;;
64210;SDS011;50528;48.514;14.394;2023-07-29T01:25:05;6.30;;;2.90;;
64210;SDS011;50528;48.514;14.394;2023-07-29T01:25:39;3.60;;;2.50;;
64210;SDS011;50528;48.514;14.394;2023-07-29T01:26:13;4.90;;;2.60;;
64210;SDS011;50528;48.514;14.394;2023-07-29T01:26:46;3.40;;;2.40;;
64210;SDS011;50528;48.514;14.394;2023-07-29T01:27:19;4.10;;;2.60;;
64210;SDS011;50528;48.514;14.394;2023-07-29T01:27:53;3.50;;;2.50;;
64210;SDS011;50528;48.514;14.394;2023-07-29T01:28:28;3.80;;;2.40;;
64210;SDS011;50528;48.514;14.394;2023-07-29T01:29:02;3.40;;;2.40;;
64210;SDS011;50528;48.514;14.394;2023-07-29T01:29:36;4.10;;;2.40;;
64210;SDS011;50528;48.514;14.394;2023-07-29T01:30:09;3.70;;;2.40;;
64210;SDS011;50528;48.514;14.394;2023-07-29T01:30:43;4.00;;;2.60;;
64210;SDS011;50528;48.514;14.394;2023-07-29T01:31:25;3.50;;;2.40;;
64210;SDS011;50528;48.514;14.394;2023-07-29T01:33:09;6.40;;;2.30;;
64210;SDS011;50528;48.514;14.394;2023-07-29T01:33:48;4.40;;;2.70;;
64210;SDS011;50528;48.514;14.394;2023-07-29T01:34:29;3.80;;;2.30;;
64210;SDS011;50528;48.514;14.394;2023-07-29T01:36:03;3.50;;;2.40;;
64210;SDS011;50528;48.514;14.394;2023-07-29T01:36:51;3.50;;;2.40;;
64210;SDS011;50528;48.514;14.394;2023-07-29T01:37:27;4.50;;;2.20;;
64210;SDS011;50528;48.514;14.394;2023-07-29T01:38:07;2.90;;;2.10;;
64210;SDS011;50528;48.514;14.394;2023-07-29T01:38:46;4.70;;;2.40;;
64210;SDS011;50528;48.514;14.394;2023-07-29T01:39:21;3.70;;;2.50;;
64210;SDS011;50528;48.514;14.394;2023-07-29T01:39:56;4.40;;;2.50;;
64210;SDS011;50528;48.514;14.394;2023-07-29T01:40:31;3.60;;;2.40;;
64210;SDS011;50528;48.514;14.394;2023-07-29T01:41:07;3.60;;;2.50;;
64210;SDS011;50528;48.514;14.394;2023-07-29T01:41:41;4.40;;;2.60;;
64210;SDS011;50528;48.514;14.394;2023-07-29T01:42:17;3.80;;;2.40;;
64210;SDS011;50528;48.514;14.394;2023-07-29T01:42:50;4.50;;;2.60;;
64210;SDS011;50528;48.514;14.394;2023-07-29T01:43:24;3.80;;;2.40;;
64210;SDS011;50528;48.514;14.394;2023-07-29T01:43:59;3.80;;;2.70;;
64210;SDS011;50528;48.514;14.394;2023-07-29T01:44:32;4.00;;;2.50;;
64210;SDS011;50528;48.514;14.394;2023-07-29T01:45:06;3.80;;;2.60;;
64210;SDS011;50528;48.514;14.394;2023-07-29T01:45:40;4.50;;;2.60;;
64210;SDS011;50528;48.514;14.394;2023-07-29T01:46:14;3.70;;;2.60;;
64210;SDS011;50528;48.514;14.394;2023-07-29T01:46:48;3.20;;;2.30;;
64210;SDS011;50528;48.514;14.394;2023-07-29T01:47:22;3.80;;;2.60;;
64210;SDS011;50528;48.514;14.394;2023-07-29T01:47:56;3.50;;;2.60;;
64210;SDS011;50528;48.514;14.394;2023-07-29T01:48:29;4.80;;;2.60;;
64210;SDS011;50528;48.514;14.394;2023-07-29T01:51:16;3.40;;;2.60;;
64210;SDS011;50528;48.514;14.394;2023-07-29T01:51:49;3.50;;;2.50;;
64210;SDS011;50528;48.514;14.394;2023-07-29T01:52:23;4.20;;;2.70;;
64210;SDS011;50528;48.514;14.394;2023-07-29T01:52:56;3.20;;;2.40;;
64210;SDS011;50528;48.514;14.394;2023-07-29T01:53:30;3.90;;;2.60;;
64210;SDS011;50528;48.514;14.394;2023-07-29T01:54:03;4.20;;;2.70;;
64210;SDS011;50528;48.514;14.394;2023-07-29T01:54:37;3.80;;;2.40;;
64210;SDS011;50528;48.514;14.394;2023-07-29T01:55:10;4.00;;;2.40;;
64210;SDS011;50528;48.514;14.394;2023-07-29T01:55:44;3.90;;;2.60;;
64210;SDS011;50528;48.514;14.394;2023-07-29T01:56:18;3.80;;;2.60;;
64210;SDS011;50528;48.514;14.394;2023-07-29T01:56:59;5.40;;;2.60;;
64210;SDS011;50528;48.514;14.394;2023-07-29T01:57:33;4.30;;;2.30;;
64210;SDS011;50528;48.514;14.394;2023-07-29T01:58:06;3.30;;;2.20;;
64210;SDS011;50528;48.514;14.394;2023-07-29T01:58:41;2.70;;;1.90;;
64210;SDS011;50528;48.514;14.394;2023-07-29T01:59:15;3.30;;;2.40;;
64210;SDS011;50528;48.514;14.394;2023-07-29T01:59:49;3.80;;;2.20;;
64210;SDS011;50528;48.514;14.394;2023-07-29T02:00:22;3.40;;;2.30;;
64210;SDS011;50528;48.514;14.394;2023-07-29T02:00:56;3.40;;;2.30;;
64210;SDS011;50528;48.514;14.394;2023-07-29T02:01:29;3.50;;;2.20;;
64210;SDS011;50528;48.514;14.394;2023-07-29T02:02:04;5.50;;;2.20;;
64210;SDS011;50528;48.514;14.394;2023-07-29T02:02:38;3.20;;;2.30;;
64210;SDS011;50528;48.514;14.394;2023-07-29T02:03:11;3.50;;;2.40;;
64210;SDS011;50528;48.514;14.394;2023-07-29T02:03:44;3.60;;;2.20;;
64210;SDS011;50528;48.514;14.394;2023-07-29T02:04:18;3.40;;;2.30;;
64210;SDS011;50528;48.514;14.394;2023-07-29T02:04:51;5.20;;;2.10;;
64210;SDS011;50528;48.514;14.394;2023-07-29T02:05:25;4.00;;;2.20;;
64210;SDS011;50528;48.514;14.394;2023-07-29T02:05:59;3.40;;;2.10;;
64210;SDS011;50528;48.514;14.394;2023-07-29T02:06:32;4.20;;;2.20;;
64210;SDS011;50528;48.514;14.394;2023-07-29T02:07:06;3.60;;;2.20;;
64210;SDS011;50528;48.514;14.394;2023-07-29T02:07:39;4.70;;;2.30;;
64210;SDS011;50528;48.514;14.394;2023-07-29T02:08:13;3.20;;;2.10;;
64210;SDS011;50528;48.514;14.394;2023-07-29T02:08:47;4.00;;;2.30;;
64210;SDS011;50528;48.514;14.394;2023-07-29T02:09:20;3.40;;;2.20;;
64210;SDS011;50528;48.514;14.394;2023-07-29T02:09:54;5.70;;;2.40;;
64210;SDS011;50528;48.514;14.394;2023-07-29T02:10:27;3.10;;;2.10;;
64210;SDS011;50528;48.514;14.394;2023-07-29T02:11:01;4.10;;;2.30;;
64210;SDS011;50528;48.514;14.394;2023-07-29T02:11:34;3.80;;;2.30;;
64210;SDS011;50528;48.514;14.394;2023-07-29T02:12:08;4.00;;;2.20;;
64210;SDS011;50528;48.514;14.394;2023-07-29T02:12:44;5.60;;;2.00;;
64210;SDS011;50528;48.514;14.394;2023-07-29T02:13:17;4.00;;;2.10;;
64210;SDS011;50528;48.514;14.394;2023-07-29T02:13:50;4.90;;;2.30;;
64210;SDS011;50528;48.514;14.394;2023-07-29T02:14:24;3.60;;;2.40;;
64210;SDS011;50528;48.514;14.394;2023-07-29T02:14:57;2.80;;;2.10;;
64210;SDS011;50528;48.514;14.394;2023-07-29T02:15:31;3.40;;;2.10;;
64210;SDS011;50528;48.514;14.394;2023-07-29T02:16:04;3.70;;;2.10;;
64210;SDS011;50528;48.514;14.394;2023-07-29T02:16:37;4.10;;;2.10;;
64210;SDS011;50528;48.514;14.394;2023-07-29T02:17:12;3.80;;;2.30;;
64210;SDS011;50528;48.514;14.394;2023-07-29T02:17:46;3.50;;;2.40;;
64210;SDS011;50528;48.514;14.394;2023-07-29T02:18:19;4.00;;;2.40;;
64210;SDS011;50528;48.514;14.394;2023-07-29T02:18:53;3.30;;;2.00;;
64210;SDS011;50528;48.514;14.394;2023-07-29T02:19:28;3.80;;;2.40;;
64210;SDS011;50528;48.514;14.394;2023-07-29T02:20:02;4.70;;;2.00;;
64210;SDS011;50528;48.514;14.394;2023-07-29T02:20:36;3.60;;;2.10;;
64210;SDS011;50528;48.514;14.394;2023-07-29T02:21:10;3.80;;;1.90;;
64210;SDS011;50528;48.514;14.394;2023-07-29T02:21:43;4.10;;;2.10;;
64210;SDS011;50528;48.514;14.394;2023-07-29T02:22:17;3.90;;;2.30;;
64210;SDS011;50528;48.514;14.394;2023-07-29T02:22:51;4.70;;;2.10;;
64210;SDS011;50528;48.514;14.394;2023-07-29T02:23:24;3.90;;;2.20;;
64210;SDS011;50528;48.514;14.394;2023-07-29T02:23:57;4.90;;;2.20;;
64210;SDS011;50528;48.514;14.394;2023-07-29T02:24:31;3.60;;;2.10;;
64210;SDS011;50528;48.514;14.394;2023-07-29T02:25:04;4.50;;;2.30;;
64210;SDS011;50528;48.514;14.394;2023-07-29T02:25:38;3.50;;;1.80;;
64210;SDS011;50528;48.514;14.394;2023-07-29T02:26:11;3.40;;;2.00;;
64210;SDS011;50528;48.514;14.394;2023-07-29T02:26:44;3.40;;;1.90;;
64210;SDS011;50528;48.514;14.394;2023-07-29T02:27:18;3.90;;;2.10;;
64210;SDS011;50528;48.514;14.394;2023-07-29T02:27:51;3.00;;;1.90;;
64210;SDS011;50528;48.514;14.394;2023-07-29T02:28:25;4.10;;;2.00;;
64210;SDS011;50528;48.514;14.394;2023-07-29T02:28:58;3.00;;;1.90;;
64210;SDS011;50528;48.514;14.394;2023-07-29T02:29:31;3.00;;;1.80;;
64210;SDS011;50528;48.514;14.394;2023-07-29T02:30:06;4.90;;;2.20;;
64210;SDS011;50528;48.514;14.394;2023-07-29T02:30:40;2.80;;;1.90;;
64210;SDS011;50528;48.514;14.394;2023-07-29T02:31:20;3.00;;;2.00;;
64210;SDS011;50528;48.514;14.394;2023-07-29T02:31:55;3.90;;;1.80;;
64210;SDS011;50528;48.514;14.394;2023-07-29T02:32:28;2.80;;;2.00;;
64210;SDS011;50528;48.514;14.394;2023-07-29T02:33:02;3.70;;;2.10;;
64210;SDS011;50528;48.514;14.394;2023-07-29T02:33:36;3.30;;;2.00;;
64210;SDS011;50528;48.514;14.394;2023-07-29T02:34:09;4.00;;;2.10;;
64210;SDS011;50528;48.514;14.394;2023-07-29T02:34:43;3.20;;;2.10;;
64210;SDS011;50528;48.514;14.394;2023-07-29T02:35:16;2.90;;;1.90;;
64210;SDS011;50528;48.514;14.394;2023-07-29T02:35:50;3.00;;;1.90;;
64210;SDS011;50528;48.514;14.394;2023-07-29T02:36:23;3.50;;;2.40;;
64210;SDS011;50528;48.514;14.394;2023-07-29T02:36:57;3.60;;;2.30;;
64210;SDS011;50528;48.514;14.394;2023-07-29T02:37:30;3.60;;;2.20;;
64210;SDS011;50528;48.514;14.394;2023-07-29T02:38:03;4.00;;;2.40;;
64210;SDS011;50528;48.514;14.394;2023-07-29T02:38:37;4.80;;;2.40;;
64210;SDS011;50528;48.514;14.394;2023-07-29T02:39:11;3.10;;;2.10;;
64210;SDS011;50528;48.514;14.394;2023-07-29T02:39:44;3.30;;;2.20;;
64210;SDS011;50528;48.514;14.394;2023-07-29T02:40:18;3.00;;;2.00;;
64210;SDS011;50528;48.514;14.394;2023-07-29T02:40:51;3.10;;;2.20;;
64210;SDS011;50528;48.514;14.394;2023-07-29T02:41:24;3.30;;;2.10;;
64210;SDS011;50528;48.514;14.394;2023-07-29T02:41:58;3.60;;;2.20;;
64210;SDS011;50528;48.514;14.394;2023-07-29T02:42:31;3.60;;;2.30;;
64210;SDS011;50528;48.514;14.394;2023-07-29T02:43:04;4.40;;;2.30;;
64210;SDS011;50528;48.514;14.394;2023-07-29T02:43:38;4.20;;;2.30;;
64210;SDS011;50528;48.514;14.394;2023-07-29T02:44:15;3.50;;;2.30;;
64210;SDS011;50528;48.514;14.394;2023-07-29T02:44:48;3.10;;;2.20;;
64210;SDS011;50528;48.514;14.394;2023-07-29T02:45:22;3.80;;;2.20;;
64210;SDS011;50528;48.514;14.394;2023-07-29T02:45:55;3.70;;;2.60;;
64210;SDS011;50528;48.514;14.394;2023-07-29T02:46:29;4.60;;;2.30;;
64210;SDS011;50528;48.514;14.394;2023-07-29T02:47:02;3.50;;;2.30;;
64210;SDS011;50528;48.514;14.394;2023-07-29T02:47:36;3.70;;;2.20;;
64210;SDS011;50528;48.514;14.394;2023-07-29T02:48:11;3.10;;;2.20;;
64210;SDS011;50528;48.514;14.394;2023-07-29T02:48:44;4.50;;;2.30;;
64210;SDS011;50528;48.514;14.394;2023-07-29T02:49:18;4.10;;;2.40;;
64210;SDS011;50528;48.514;14.394;2023-07-29T02:49:51;4.50;;;2.30;;
64210;SDS011;50528;48.514;14.394;2023-07-29T02:50:24;3.90;;;2.20;;
64210;SDS011;50528;48.514;14.394;2023-07-29T02:50:58;3.70;;;2.20;;
64210;SDS011;50528;48.514;14.394;2023-07-29T02:51:31;4.80;;;2.50;;
64210;SDS011;50528;48.514;14.394;2023-07-29T02:52:04;3.10;;;2.10;;
64210;SDS011;50528;48.514;14.394;2023-07-29T02:52:38;4.10;;;2.50;;
64210;SDS011;50528;48.514;14.394;2023-07-29T02:53:12;3.20;;;2.30;;
64210;SDS011;50528;48.514;14.394;2023-07-29T02:53:45;3.20;;;2.10;;
64210;SDS011;50528;48.514;14.394;2023-07-29T02:54:18;4.40;;;2.40;;
64210;SDS011;50528;48.514;14.394;2023-07-29T02:54:53;4.40;;;2.40;;
64210;SDS011;50528;48.514;14.394;2023-07-29T02:55:26;4.10;;;2.40;;
64210;SDS011;50528;48.514;14.394;2023-07-29T02:56:00;4.40;;;2.40;;
64210;SDS011;50528;48.514;14.394;2023-07-29T02:56:33;5.30;;;2.30;;
64210;SDS011;50528;48.514;14.394;2023-07-29T02:57:07;3.40;;;2.30;;
64210;SDS011;50528;48.514;14.394;2023-07-29T02:57:41;5.10;;;2.40;;
64210;SDS011;50528;48.514;14.394;2023-07-29T02:58:14;3.90;;;2.10;;
64210;SDS011;50528;48.514;14.394;2023-07-29T02:58:47;3.30;;;2.10;;
64210;SDS011;50528;48.514;14.394;2023-07-29T02:59:21;3.10;;;2.10;;
64210;SDS011;50528;48.514;14.394;2023-07-29T02:59:54;3.40;;;2.40;;
64210;SDS011;50528;48.514;14.394;2023-07-29T03:00:30;5.20;;;2.40;;
64210;SDS011;50528;48.514;14.394;2023-07-29T03:01:05;4.00;;;2.40;;
64210;SDS011;50528;48.514;14.394;2023-07-29T03:01:39;4.50;;;2.40;;
64210;SDS011;50528;48.514;14.394;2023-07-29T03:02:13;4.80;;;2.30;;
64210;SDS011;50528;48.514;14.394;2023-07-29T03:02:47;3.40;;;2.20;;
64210;SDS011;50528;48.514;14.394;2023-07-29T03:03:21;3.20;;;2.40;;
64210;SDS011;50528;48.514;14.394;2023-07-29T03:03:54;3.40;;;2.30;;
64210;SDS011;50528;48.514;14.394;2023-07-29T03:04:28;3.60;;;2.30;;
64210;SDS011;50528;48.514;14.394;2023-07-29T03:05:05;3.50;;;2.20;;
64210;SDS011;50528;48.514;14.394;2023-07-29T03:05:39;3.10;;;2.10;;
64210;SDS011;50528;48.514;14.394;2023-07-29T03:06:13;3.50;;;2.30;;
64210;SDS011;50528;48.514;14.394;2023-07-29T03:06:47;4.40;;;2.60;;
64210;SDS011;50528;48.514;14.394;2023-07-29T03:07:21;2.90;;;2.00;;
64210;SDS011;50528;48.514;14.394;2023-07-29T03:07:54;3.60;;;2.40;;
64210;SDS011;50528;48.514;14.394;2023-07-29T03:08:27;3.60;;;2.40;;
64210;SDS011;50528;48.514;14.394;2023-07-29T03:09:01;3.00;;;2.10;;
64210;SDS011;50528;48.514;14.394;2023-07-29T03:09:34;3.10;;;1.90;;
64210;SDS011;50528;48.514;14.394;2023-07-29T03:10:08;2.80;;;2.10;;
64210;SDS011;50528;48.514;14.394;2023-07-29T03:10:44;4.10;;;2.30;;
64210;SDS011;50528;48.514;14.394;2023-07-29T03:11:17;3.60;;;2.40;;
64210;SDS011;50528;48.514;14.394;2023-07-29T03:11:51;3.00;;;2.10;;
64210;SDS011;50528;48.514;14.394;2023-07-29T03:12:25;4.10;;;2.20;;
64210;SDS011;50528;48.514;14.394;2023-07-29T03:12:59;3.60;;;2.20;;
64210;SDS011;50528;48.514;14.394;2023-07-29T03:13:32;3.60;;;2.10;;
64210;SDS011;50528;48.514;14.394;2023-07-29T03:14:06;5.60;;;2.00;;
64210;SDS011;50528;48.514;14.394;2023-07-29T03:14:39;3.40;;;2.10;;
64210;SDS011;50528;48.514;14.394;2023-07-29T03:15:14;4.60;;;2.40;;
64210;SDS011;50528;48.514;14.394;2023-07-29T03:15:48;3.30;;;2.20;;
64210;SDS011;50528;48.514;14.394;2023-07-29T03:16:21;4.00;;;2.50;;
64210;SDS011;50528;48.514;14.394;2023-07-29T03:17:01;3.80;;;2.10;;
64210;SDS011;50528;48.514;14.394;2023-07-29T03:17:37;3.90;;;2.40;;
64210;SDS011;50528;48.514;14.394;2023-07-29T03:18:11;3.10;;;2.30;;
64210;SDS011;50528;48.514;14.394;2023-07-29T03:18:45;3.20;;;2.30;;
64210;SDS011;50528;48.514;14.394;2023-07-29T03:19:18;5.30;;;2.10;;
64210;SDS011;50528;48.514;14.394;2023-07-29T03:19:52;3.00;;;2.00;;
64210;SDS011;50528;48.514;14.394;2023-07-29T03:20:25;3.30;;;2.10;;
64210;SDS011;50528;48.514;14.394;2023-07-29T03:20:58;3.90;;;2.10;;
64210;SDS011;50528;48.514;14.394;2023-07-29T03:21:32;3.70;;;2.10;;
64210;SDS011;50528;48.514;14.394;2023-07-29T03:22:05;4.40;;;2.20;;
64210;SDS011;50528;48.514;14.394;2023-07-29T03:22:39;4.50;;;2.60;;
64210;SDS011;50528;48.514;14.394;2023-07-29T03:23:13;4.00;;;2.20;;
64210;SDS011;50528;48.514;14.394;2023-07-29T03:23:46;3.00;;;2.20;;
64210;SDS011;50528;48.514;14.394;2023-07-29T03:24:20;4.20;;;2.30;;
64210;SDS011;50528;48.514;14.394;2023-07-29T03:24:53;3.50;;;2.10;;
64210;SDS011;50528;48.514;14.394;2023-07-29T03:25:26;3.80;;;2.30;;
64210;SDS011;50528;48.514;14.394;2023-07-29T03:26:00;3.20;;;2.20;;
64210;SDS011;50528;48.514;14.394;2023-07-29T03:26:37;3.90;;;2.40;;
64210;SDS011;50528;48.514;14.394;2023-07-29T03:27:11;2.80;;;2.00;;
64210;SDS011;50528;48.514;14.394;2023-07-29T03:27:44;3.00;;;2.20;;
64210;SDS011;50528;48.514;14.394;2023-07-29T03:28:17;4.50;;;2.10;;
64210;SDS011;50528;48.514;14.394;2023-07-29T03:28:51;3.70;;;2.60;;
64210;SDS011;50528;48.514;14.394;2023-07-29T03:29:24;4.40;;;2.70;;
64210;SDS011;50528;48.514;14.394;2023-07-29T03:29:57;3.20;;;2.40;;
64210;SDS011;50528;48.514;14.394;2023-07-29T03:30:32;4.40;;;2.70;;
64210;SDS011;50528;48.514;14.394;2023-07-29T03:31:06;3.60;;;2.50;;
64210;SDS011;50528;48.514;14.394;2023-07-29T03:31:40;4.20;;;2.60;;
64210;SDS011;50528;48.514;14.394;2023-07-29T03:32:13;3.40;;;2.20;;
64210;SDS011;50528;48.514;14.394;2023-07-29T03:32:47;4.20;;;2.60;;
64210;SDS011;50528;48.514;14.394;2023-07-29T03:33:22;3.80;;;2.60;;
64210;SDS011;50528;48.514;14.394;2023-07-29T03:33:57;3.90;;;2.70;;
64210;SDS011;50528;48.514;14.394;2023-07-29T03:34:30;3.70;;;2.70;;
64210;SDS011;50528;48.514;14.394;2023-07-29T03:35:05;4.20;;;2.30;;
64210;SDS011;50528;48.514;14.394;2023-07-29T03:35:38;3.90;;;2.40;;
64210;SDS011;50528;48.514;14.394;2023-07-29T03:36:12;4.40;;;2.50;;